Time;durP1;ratioP1;P1;durP2;ratioP2;P2;SDS_P1;SDS_P2;PMS_P1;PMS_P2;Temp;Humidity;BMP_temperature;BMP_pressure;BME280_temperature;BME280_humidity;BME280_pressure;Samples;Min_cycle;Max_cycle;Signal;HPM_P1;HPM_P2
2024/01/28 00:01:19;;;;;;;12.83;2.80;;;26.20;67.70;;;;;;5055324;28;20273;-72
2024/01/28 00:03:46;;;;;;;12.63;2.90;;;26.10;67.50;;;;;;5057255;28;20219;-71
2024/01/28 00:06:15;;;;;;;16.63;2.90;;;26.10;67.80;;;;;;5069956;28;20187;-71
2024/01/28 00:08:42;;;;;;;13.13;3.67;;;26.20;67.70;;;;;;5065971;28;20180;-72
2024/01/28 00:11:10;;;;;;;10.23;2.60;;;26.60;67.50;;;;;;5072244;28;20183;-70
2024/01/28 00:13:37;;;;;;;12.90;2.80;;;26.50;65.80;;;;;;5066696;28;20186;-74
2024/01/28 00:16:05;;;;;;;9.67;2.27;;;26.50;65.90;;;;;;5071728;28;20195;-71
2024/01/28 00:18:32;;;;;;;9.70;2.70;;;26.30;65.90;;;;;;5059141;28;20182;-75
2024/01/28 00:21:00;;;;;;;9.63;2.70;;;26.50;65.20;;;;;;5059334;28;20192;-75
2024/01/28 00:23:29;;;;;;;13.80;3.23;;;26.70;65.00;;;;;;5069440;28;20214;-73
2024/01/28 00:25:57;;;;;;;12.80;2.77;;;26.60;65.30;;;;;;5062282;28;20674;-74
2024/01/28 00:28:25;;;;;;;17.63;3.57;;;26.60;65.70;;;;;;5066025;28;20187;-73
2024/01/28 00:30:53;;;;;;;10.77;3.50;;;26.80;65.30;;;;;;5067340;28;20199;-75
2024/01/28 00:33:20;;;;;;;9.40;2.37;;;26.90;65.50;;;;;;5046454;28;20183;-76
2024/01/28 00:35:48;;;;;;;13.50;2.90;;;27.10;64.50;;;;;;5068209;28;20239;-75
2024/01/28 00:38:15;;;;;;;9.57;3.00;;;27.20;64.40;;;;;;5056070;28;20666;-73
2024/01/28 00:40:43;;;;;;;12.40;2.40;;;26.80;64.00;;;;;;5056813;28;20188;-75
2024/01/28 00:43:10;;;;;;;13.93;2.67;;;26.90;65.40;;;;;;5067315;28;20244;-75
2024/01/28 00:45:41;;;;;;;11.10;2.97;;;27.20;63.60;;;;;;5065394;28;20678;-74
2024/01/28 00:48:08;;;;;;;13.97;2.60;;;27.40;64.00;;;;;;5067869;28;20193;-75
2024/01/28 00:50:35;;;;;;;11.10;2.87;;;27.80;63.50;;;;;;5056164;28;20180;-76
2024/01/28 00:53:03;;;;;;;12.80;2.80;;;28.10;63.20;;;;;;5067132;28;20270;-77
2024/01/28 00:55:31;;;;;;;11.53;2.70;;;28.10;62.30;;;;;;5069389;28;20214;-76
2024/01/28 00:57:59;;;;;;;9.43;2.33;;;27.80;63.70;;;;;;5062323;28;20262;-76
2024/01/28 01:00:27;;;;;;;12.40;2.87;;;27.90;63.70;;;;;;5069848;28;20179;-75
2024/01/28 01:02:55;;;;;;;11.83;2.87;;;28.00;63.20;;;;;;5076356;28;20737;-76
2024/01/28 01:05:22;;;;;;;12.43;2.70;;;27.60;63.90;;;;;;5063977;28;20212;-77
2024/01/28 01:07:49;;;;;;;13.60;2.93;;;27.70;64.40;;;;;;5067642;28;20217;-75
2024/01/28 01:10:17;;;;;;;10.67;2.83;;;27.90;62.80;;;;;;5058563;28;20180;-77
2024/01/28 01:12:44;;;;;;;11.60;3.40;;;27.80;62.80;;;;;;5064596;28;20205;-77
2024/01/28 01:15:11;;;;;;;12.47;3.30;;;27.90;63.30;;;;;;5067678;28;20180;-74
2024/01/28 01:17:39;;;;;;;11.50;3.17;;;27.90;63.00;;;;;;5055615;28;20187;-78
2024/01/28 01:20:06;;;;;;;9.53;2.63;;;27.90;63.00;;;;;;5054095;28;20314;-76
2024/01/28 01:22:34;;;;;;;8.63;2.40;;;27.90;63.50;;;;;;5068506;28;20179;-75
2024/01/28 01:25:02;;;;;;;10.93;3.00;;;27.80;63.70;;;;;;5073640;28;20281;-75
2024/01/28 01:27:29;;;;;;;10.20;2.73;;;28.00;63.50;;;;;;5075733;28;20187;-76
2024/01/28 01:29:56;;;;;;;12.93;3.17;;;28.20;62.30;;;;;;5082809;28;20190;-76
2024/01/28 01:32:24;;;;;;;11.60;2.97;;;28.40;63.00;;;;;;5070269;28;20270;-77
2024/01/28 01:34:51;;;;;;;13.03;3.00;;;28.10;63.80;;;;;;5070126;28;20234;-76
2024/01/28 01:37:18;;;;;;;10.60;3.00;;;28.50;63.30;;;;;;5065673;28;20187;-76
2024/01/28 01:39:46;;;;;;;10.93;2.83;;;28.70;62.50;;;;;;5074899;28;20614;-76
2024/01/28 01:42:13;;;;;;;16.43;3.37;;;27.90;64.30;;;;;;5076091;28;20258;-76
2024/01/28 01:44:40;;;;;;;13.67;3.53;;;27.90;63.90;;;;;;5062145;28;20284;-75
2024/01/28 01:47:08;;;;;;;11.97;2.90;;;27.90;64.50;;;;;;5076258;28;20238;-77
2024/01/28 01:49:35;;;;;;;10.80;2.97;;;27.50;64.80;;;;;;5069568;28;20191;-75
2024/01/28 01:52:06;;;;;;;16.10;3.40;;;27.40;64.40;;;;;;5063506;28;20238;-77
2024/01/28 01:54:34;;;;;;;15.00;3.10;;;27.30;65.70;;;;;;5072247;28;20183;-76
2024/01/28 01:57:03;;;;;;;11.30;3.03;;;27.20;66.00;;;;;;5073335;28;20524;-77
2024/01/28 01:59:31;;;;;;;13.77;3.23;;;27.10;66.70;;;;;;5070572;28;20218;-74
2024/01/28 02:02:02;;;;;;;10.70;2.70;;;27.20;66.20;;;;;;5068403;28;20232;-73
2024/01/28 02:04:29;;;;;;;9.60;2.70;;;27.80;64.60;;;;;;5080817;28;20242;-73
2024/01/28 02:06:56;;;;;;;11.20;3.03;;;28.50;61.50;;;;;;5065194;28;20180;-76
2024/01/28 02:09:24;;;;;;;12.93;2.67;;;28.90;61.00;;;;;;5058003;28;20274;-74
2024/01/28 02:11:52;;;;;;;9.07;2.57;;;28.70;61.70;;;;;;5057524;28;20191;-75
2024/01/28 02:14:24;;;;;;;14.17;3.40;;;28.40;61.90;;;;;;5067478;28;20211;-76
2024/01/28 02:16:51;;;;;;;11.00;3.20;;;28.40;62.10;;;;;;5058487;28;20197;-76
2024/01/28 02:19:19;;;;;;;9.70;2.70;;;28.70;61.30;;;;;;5058545;28;20182;-77
2024/01/28 02:21:46;;;;;;;10.47;2.70;;;28.30;61.70;;;;;;5070694;28;20199;-74
2024/01/28 02:24:14;;;;;;;10.43;3.10;;;27.90;62.10;;;;;;5071264;28;20285;-75
2024/01/28 02:26:44;;;;;;;12.30;3.37;;;28.30;62.10;;;;;;5060634;28;20263;-76
2024/01/28 02:29:12;;;;;;;10.60;3.07;;;28.60;61.90;;;;;;5060763;28;20180;-75
2024/01/28 02:31:39;;;;;;;9.83;3.00;;;29.20;59.00;;;;;;5058331;28;20188;-75
2024/01/28 02:34:06;;;;;;;11.93;2.93;;;29.00;59.30;;;;;;5064088;28;20183;-74
2024/01/28 02:36:33;;;;;;;11.37;3.10;;;29.30;58.50;;;;;;5068632;28;20196;-76
2024/01/28 02:39:01;;;;;;;13.00;3.10;;;29.80;58.20;;;;;;5058795;28;20191;-76
2024/01/28 02:41:31;;;;;;;11.10;2.53;;;30.20;57.10;;;;;;5058795;28;20248;-74
2024/01/28 02:43:58;;;;;;;12.50;2.57;;;30.30;56.80;;;;;;5068499;28;20237;-72
2024/01/28 02:46:25;;;;;;;11.63;2.80;;;30.30;56.50;;;;;;5078242;28;20271;-73
2024/01/28 02:48:55;;;;;;;13.33;3.03;;;30.40;55.40;;;;;;5067728;28;20180;-74
2024/01/28 02:51:26;;;;;;;10.87;2.63;;;29.30;58.00;;;;;;5072080;28;20237;-79
2024/01/28 02:53:53;;;;;;;11.10;3.17;;;29.30;58.80;;;;;;5066639;28;20184;-74
2024/01/28 02:56:21;;;;;;;11.43;2.67;;;29.50;58.00;;;;;;5072209;28;20274;-75
2024/01/28 02:58:48;;;;;;;9.33;3.43;;;29.90;56.20;;;;;;5070870;28;20183;-71
2024/01/28 03:01:16;;;;;;;9.93;2.70;;;29.80;56.70;;;;;;5061244;28;20187;-75
2024/01/28 03:03:43;;;;;;;11.73;2.50;;;29.20;56.80;;;;;;5059036;28;20180;-73
2024/01/28 03:06:10;;;;;;;13.97;2.80;;;29.30;58.00;;;;;;5062864;28;20191;-73
2024/01/28 03:08:38;;;;;;;11.27;2.87;;;29.70;57.60;;;;;;5058310;28;20218;-73
2024/01/28 03:11:05;;;;;;;8.83;2.37;;;30.00;56.30;;;;;;5069379;28;20201;-75
2024/01/28 03:13:32;;;;;;;10.75;3.17;;;30.10;55.10;;;;;;5073183;28;20665;-76
2024/01/28 03:16:00;;;;;;;11.93;2.53;;;29.90;55.60;;;;;;5070009;28;20727;-77
2024/01/28 03:18:27;;;;;;;7.17;2.27;;;29.40;57.50;;;;;;5066077;28;20195;-73
2024/01/28 03:20:56;;;;;;;9.00;2.23;;;29.60;57.00;;;;;;5059059;28;20187;-77
2024/01/28 03:23:23;;;;;;;9.00;2.67;;;29.40;57.30;;;;;;5071819;28;20217;-75
2024/01/28 03:25:50;;;;;;;10.10;2.63;;;29.40;57.10;;;;;;5085730;28;20241;-74
2024/01/28 03:28:18;;;;;;;10.50;2.60;;;29.30;58.20;;;;;;5069292;28;20190;-72
2024/01/28 03:30:45;;;;;;;9.50;2.30;;;29.30;58.30;;;;;;5057524;28;20225;-78
2024/01/28 03:33:12;;;;;;;10.93;2.67;;;28.20;61.80;;;;;;5060431;28;20191;-74
2024/01/28 03:35:40;;;;;;;11.53;2.83;;;28.20;61.20;;;;;;5062508;28;20571;-74
2024/01/28 03:38:07;;;;;;;11.73;2.47;;;28.10;61.10;;;;;;5058953;28;20188;-73
2024/01/28 03:40:34;;;;;;;12.43;2.77;;;28.10;61.10;;;;;;5058376;28;20172;-74
2024/01/28 03:43:02;;;;;;;11.47;2.80;;;27.70;61.90;;;;;;5061659;28;20187;-77
2024/01/28 03:45:29;;;;;;;17.13;3.07;;;27.50;63.10;;;;;;5064012;28;20223;-77
2024/01/28 03:47:56;;;;;;;11.20;2.50;;;27.90;61.80;;;;;;5074241;28;20187;-75
2024/01/28 03:50:24;;;;;;;9.87;2.73;;;27.90;61.50;;;;;;5075645;28;20191;-75
2024/01/28 03:52:52;;;;;;;8.97;2.23;;;27.80;62.00;;;;;;5067750;28;20612;-74
2024/01/28 03:55:19;;;;;;;7.67;2.50;;;27.70;62.50;;;;;;5060147;28;20556;-74
2024/01/28 03:57:46;;;;;;;9.43;2.40;;;27.60;62.50;;;;;;5054674;28;20196;-75
2024/01/28 04:00:15;;;;;;;10.70;2.87;;;28.30;60.60;;;;;;5062176;28;20183;-74
2024/01/28 04:02:42;;;;;;;9.40;2.60;;;28.30;61.20;;;;;;5068450;28;20297;-75
2024/01/28 04:05:10;;;;;;;12.13;3.23;;;28.70;60.90;;;;;;5058627;28;20284;-75
2024/01/28 04:07:37;;;;;;;9.33;2.77;;;28.80;59.80;;;;;;5072107;28;20285;-74
2024/01/28 04:10:05;;;;;;;7.77;2.13;;;28.80;59.80;;;;;;5066507;28;20195;-75
2024/01/28 04:12:35;;;;;;;9.17;2.13;;;28.30;60.60;;;;;;5071013;28;20187;-73
2024/01/28 04:15:03;;;;;;;8.17;2.60;;;28.30;61.50;;;;;;5070883;28;20179;-72
2024/01/28 04:17:30;;;;;;;12.13;2.27;;;27.90;61.20;;;;;;5072277;28;20176;-74
2024/01/28 04:19:57;;;;;;;7.60;2.47;;;27.80;61.70;;;;;;5075457;28;20236;-76
2024/01/28 04:22:26;;;;;;;9.37;2.77;;;27.60;62.40;;;;;;5080019;28;20187;-73
2024/01/28 04:24:53;;;;;;;13.20;2.97;;;27.70;61.90;;;;;;5064478;28;20230;-74
2024/01/28 04:27:20;;;;;;;7.57;2.77;;;27.50;62.90;;;;;;5066711;28;20179;-73
2024/01/28 04:29:48;;;;;;;8.80;2.13;;;27.80;62.40;;;;;;5060846;28;20192;-73
2024/01/28 04:32:15;;;;;;;13.23;2.70;;;27.80;61.80;;;;;;5057522;28;20238;-73
2024/01/28 04:34:42;;;;;;;8.60;2.47;;;27.70;61.90;;;;;;5062036;28;20691;-73
2024/01/28 04:37:10;;;;;;;11.67;2.50;;;28.00;60.70;;;;;;5063963;28;20226;-74
2024/01/28 04:39:37;;;;;;;7.60;2.20;;;28.70;60.10;;;;;;5058378;28;20183;-75
2024/01/28 04:42:05;;;;;;;12.87;2.87;;;29.80;56.30;;;;;;5063492;28;20190;-71
2024/01/28 04:44:32;;;;;;;12.13;2.60;;;29.80;56.00;;;;;;5069602;28;20233;-74
2024/01/28 04:47:00;;;;;;;8.23;2.20;;;29.80;55.60;;;;;;5059143;28;20215;-74
2024/01/28 04:49:27;;;;;;;7.00;1.70;;;29.10;57.70;;;;;;5058244;28;20229;-72
2024/01/28 04:51:54;;;;;;;10.33;2.70;;;28.90;58.10;;;;;;5054650;28;20188;-71
2024/01/28 04:54:22;;;;;;;13.30;2.97;;;28.60;58.40;;;;;;5061800;28;20669;-73
2024/01/28 04:56:50;;;;;;;12.20;2.50;;;28.30;60.30;;;;;;5070554;28;20545;-73
2024/01/28 04:59:17;;;;;;;8.40;2.27;;;27.80;61.40;;;;;;5062384;28;20184;-73
2024/01/28 05:01:45;;;;;;;11.07;2.40;;;27.40;62.50;;;;;;5059591;28;20187;-72
2024/01/28 05:04:13;;;;;;;9.67;2.67;;;27.10;63.10;;;;;;5069591;28;20223;-73
2024/01/28 05:06:40;;;;;;;12.40;2.27;;;27.10;63.80;;;;;;5061910;28;20190;-73
2024/01/28 05:09:10;;;;;;;8.93;2.40;;;26.90;64.00;;;;;;5069865;28;20183;-74
2024/01/28 05:11:38;;;;;;;7.33;1.93;;;28.30;60.70;;;;;;5066116;28;20191;-73
2024/01/28 05:14:08;;;;;;;7.20;2.23;;;28.40;60.50;;;;;;5073866;28;20691;-73
2024/01/28 05:16:35;;;;;;;7.63;2.37;;;28.10;60.50;;;;;;5061692;28;20242;-74
2024/01/28 05:19:06;;;;;;;12.80;2.50;;;27.80;60.60;;;;;;5071208;28;20191;-74
2024/01/28 05:21:34;;;;;;;9.20;2.10;;;27.70;61.50;;;;;;5074858;28;20541;-72
2024/01/28 05:24:01;;;;;;;10.00;2.30;;;27.80;61.20;;;;;;5061424;28;20187;-74
2024/01/28 05:26:28;;;;;;;11.77;2.30;;;28.90;58.40;;;;;;5061726;28;20195;-74
2024/01/28 05:28:57;;;;;;;9.50;2.03;;;29.80;55.80;;;;;;5058058;28;20194;-72
2024/01/28 05:31:25;;;;;;;9.73;2.50;;;28.90;58.30;;;;;;5054220;28;20185;-74
2024/01/28 05:33:52;;;;;;;12.17;2.27;;;28.40;59.50;;;;;;5055631;28;20230;-73
2024/01/28 05:36:19;;;;;;;11.50;2.17;;;27.90;60.50;;;;;;5071807;28;20255;-74
2024/01/28 05:38:47;;;;;;;9.93;2.50;;;28.30;60.10;;;;;;5062871;28;20254;-71
2024/01/28 05:41:14;;;;;;;13.77;2.80;;;29.50;57.10;;;;;;5080440;28;20578;-74
2024/01/28 05:43:42;;;;;;;8.95;2.20;;;30.20;54.30;;;;;;5062542;28;20287;-73
2024/01/28 05:46:09;;;;;;;8.23;2.58;;;29.90;54.80;;;;;;5073074;28;20188;-76
2024/01/28 05:48:36;;;;;;;6.63;1.77;;;28.80;58.00;;;;;;5057179;28;20180;-75
2024/01/28 05:51:04;;;;;;;8.37;2.23;;;28.40;58.90;;;;;;5068545;28;20839;-74
2024/01/28 05:53:31;;;;;;;9.37;2.57;;;28.00;60.70;;;;;;5070480;28;20234;-72
2024/01/28 05:55:58;;;;;;;10.77;2.50;;;28.10;60.40;;;;;;5097553;28;20201;-74
2024/01/28 05:58:26;;;;;;;8.50;1.80;;;29.10;57.60;;;;;;5077140;28;20195;-75
2024/01/28 06:00:53;;;;;;;14.80;2.37;;;30.60;54.10;;;;;;5065807;28;20176;-77
2024/01/28 06:03:21;;;;;;;6.63;1.73;;;31.30;51.80;;;;;;5070611;28;20192;-72
2024/01/28 06:05:48;;;;;;;12.10;2.42;;;29.60;55.20;;;;;;5061095;28;20223;-75
2024/01/28 06:08:16;;;;;;;5.77;2.10;;;28.70;57.90;;;;;;5074010;28;20283;-76
2024/01/28 06:10:44;;;;;;;7.70;2.13;;;28.30;59.10;;;;;;5062057;28;20714;-78
2024/01/28 06:13:12;;;;;;;8.23;2.00;;;28.30;59.00;;;;;;5066333;28;20645;-75
2024/01/28 06:15:39;;;;;;;10.90;2.60;;;29.20;56.10;;;;;;5072184;28;20600;-76
2024/01/28 06:18:06;;;;;;;8.27;2.23;;;29.00;56.80;;;;;;5072543;28;20548;-74
2024/01/28 06:20:37;;;;;;;7.13;1.95;;;30.10;54.00;;;;;;5083103;28;20664;-78
2024/01/28 06:23:05;;;;;;;6.47;1.98;;;30.10;54.90;;;;;;5080436;28;20276;-75
2024/01/28 06:25:32;;;;;;;8.43;2.00;;;30.10;55.70;;;;;;5085163;28;20238;-78
2024/01/28 06:28:00;;;;;;;8.80;2.28;;;31.20;51.60;;;;;;5063525;28;20197;-76
2024/01/28 06:30:29;;;;;;;9.68;1.88;;;30.20;53.90;;;;;;5069165;28;20182;-76
2024/01/28 06:32:56;;;;;;;7.10;2.00;;;29.70;55.30;;;;;;5065060;28;20657;-77
2024/01/28 06:35:23;;;;;;;7.97;2.05;;;29.90;54.70;;;;;;5072477;28;20709;-78
2024/01/28 06:37:51;;;;;;;10.25;2.42;;;30.20;55.20;;;;;;5061516;28;20183;-77
2024/01/28 06:40:18;;;;;;;6.65;1.67;;;30.10;54.40;;;;;;5068089;28;20216;-76
2024/01/28 06:42:45;;;;;;;10.82;2.38;;;29.90;55.10;;;;;;5057029;28;20210;-74
2024/01/28 06:45:16;;;;;;;5.90;1.95;;;30.30;54.30;;;;;;5057348;28;20491;-74
2024/01/28 06:47:45;;;;;;;7.45;1.55;;;30.60;52.80;;;;;;5068305;28;20592;-76
2024/01/28 06:50:13;;;;;;;9.57;2.15;;;31.30;51.20;;;;;;5075379;28;20183;-75
2024/01/28 06:52:42;;;;;;;6.30;2.05;;;30.80;52.60;;;;;;5076333;28;20183;-73
2024/01/28 06:55:09;;;;;;;6.22;1.90;;;30.20;53.90;;;;;;5090599;28;20183;-74
2024/01/28 06:57:37;;;;;;;6.93;1.75;;;30.40;52.00;;;;;;5064452;28;20194;-73
2024/01/28 07:00:10;;;;;;;5.50;1.88;;;30.70;52.50;;;;;;5073799;28;20565;-74
2024/01/28 07:02:40;;;;;;;7.30;2.30;;;30.20;53.20;;;;;;5089592;28;20195;-74
2024/01/28 07:05:09;;;;;;;12.52;3.05;;;30.50;52.30;;;;;;5074958;28;20219;-73
2024/01/28 07:07:40;;;;;;;5.90;1.83;;;30.70;52.60;;;;;;5084408;28;20214;-76
2024/01/28 07:10:09;;;;;;;6.00;1.90;;;31.60;50.70;;;;;;5079497;28;20179;-77
2024/01/28 07:12:37;;;;;;;8.45;2.03;;;31.70;50.00;;;;;;5079255;28;20198;-75
2024/01/28 07:15:05;;;;;;;6.10;2.15;;;31.10;50.60;;;;;;5076000;28;20208;-75
2024/01/28 07:17:32;;;;;;;7.43;2.08;;;31.50;50.80;;;;;;5075302;28;20252;-78
2024/01/28 07:20:00;;;;;;;4.80;1.80;;;30.90;52.30;;;;;;5064346;28;20241;-75
2024/01/28 07:22:27;;;;;;;5.60;1.85;;;31.10;51.00;;;;;;5062612;28;20187;-75
2024/01/28 07:24:55;;;;;;;7.57;2.00;;;31.20;50.90;;;;;;5072509;28;20231;-79
2024/01/28 07:27:22;;;;;;;8.45;2.13;;;29.80;54.40;;;;;;5062622;28;20586;-74
2024/01/28 07:29:49;;;;;;;10.23;2.75;;;29.50;55.40;;;;;;5066563;28;20188;-78
2024/01/28 07:32:16;;;;;;;6.87;2.57;;;28.60;56.90;;;;;;5060443;28;20310;-76
2024/01/28 07:34:44;;;;;;;11.33;2.50;;;27.80;59.80;;;;;;5073950;28;20280;-73
2024/01/28 07:37:11;;;;;;;7.80;1.93;;;27.30;61.50;;;;;;5067710;28;20209;-75
2024/01/28 07:39:39;;;;;;;10.47;2.60;;;27.10;61.80;;;;;;5079468;28;20211;-74
2024/01/28 07:42:06;;;;;;;7.50;2.03;;;26.70;63.40;;;;;;5072055;28;20210;-79
2024/01/28 07:44:34;;;;;;;8.07;2.10;;;26.40;64.30;;;;;;5082483;28;20209;-75
2024/01/28 07:47:03;;;;;;;6.57;2.00;;;26.30;64.90;;;;;;5071179;28;20240;-73
2024/01/28 07:49:31;;;;;;;7.97;2.27;;;26.10;66.00;;;;;;5063379;28;20186;-76
2024/01/28 07:51:58;;;;;;;7.97;2.40;;;25.90;66.70;;;;;;5068332;28;20271;-75
2024/01/28 07:54:25;;;;;;;7.37;2.23;;;25.80;66.80;;;;;;5070016;28;20180;-72
2024/01/28 07:56:53;;;;;;;10.73;2.40;;;25.50;68.10;;;;;;5068701;28;20259;-74
2024/01/28 07:59:20;;;;;;;11.97;2.60;;;25.50;68.40;;;;;;5068669;28;20192;-75
2024/01/28 08:01:47;;;;;;;10.37;2.20;;;25.30;69.10;;;;;;5058011;28;20184;-74
2024/01/28 08:04:15;;;;;;;15.10;2.80;;;25.30;69.60;;;;;;5056291;28;20223;-76
2024/01/28 08:06:42;;;;;;;8.80;2.40;;;25.30;69.50;;;;;;5070052;28;20176;-74
2024/01/28 08:09:10;;;;;;;9.80;2.37;;;25.30;69.30;;;;;;5071687;28;20186;-77
2024/01/28 08:11:38;;;;;;;8.93;2.53;;;25.30;68.70;;;;;;5059471;28;20265;-75
2024/01/28 08:14:05;;;;;;;8.90;2.70;;;25.30;69.20;;;;;;5067143;28;20180;-75
2024/01/28 08:16:35;;;;;;;6.53;1.83;;;25.30;69.50;;;;;;5057376;28;20275;-76
2024/01/28 08:19:05;;;;;;;10.03;2.60;;;25.00;69.90;;;;;;5063529;28;20187;-74
2024/01/28 08:21:33;;;;;;;9.30;2.30;;;24.80;70.90;;;;;;5066267;28;20186;-72
2024/01/28 08:24:00;;;;;;;8.47;2.17;;;24.90;70.40;;;;;;5069431;28;20183;-76
2024/01/28 08:26:27;;;;;;;10.77;2.47;;;24.90;70.80;;;;;;5067976;28;20182;-74
2024/01/28 08:28:55;;;;;;;11.23;2.40;;;25.00;70.60;;;;;;5073404;28;20611;-75
2024/01/28 08:31:22;;;;;;;11.53;2.33;;;24.80;71.20;;;;;;5067473;28;20183;-74
2024/01/28 08:33:49;;;;;;;10.50;2.70;;;24.80;71.20;;;;;;5065464;28;20560;-75
2024/01/28 08:36:17;;;;;;;10.40;2.40;;;24.70;71.90;;;;;;5061950;28;20586;-76
2024/01/28 08:38:44;;;;;;;7.73;2.30;;;24.70;71.80;;;;;;5056370;28;20647;-75
2024/01/28 08:41:11;;;;;;;7.80;2.23;;;24.70;71.80;;;;;;5062290;28;20186;-77
2024/01/28 08:43:40;;;;;;;9.73;2.00;;;24.60;72.40;;;;;;5056391;28;20205;-73
2024/01/28 08:46:07;;;;;;;8.23;2.33;;;24.60;72.50;;;;;;5058254;28;20317;-74
2024/01/28 08:48:35;;;;;;;11.67;2.53;;;24.60;72.50;;;;;;5058670;28;20180;-75
2024/01/28 08:51:02;;;;;;;9.40;2.37;;;24.50;73.00;;;;;;5063241;28;20198;-74
2024/01/28 08:53:30;;;;;;;9.20;2.60;;;24.50;73.00;;;;;;5062585;28;20214;-74
2024/01/28 08:55:57;;;;;;;11.87;2.40;;;24.30;73.20;;;;;;5066310;28;20229;-76
2024/01/28 08:58:24;;;;;;;11.17;2.57;;;24.30;73.20;;;;;;5062607;28;20187;-74
2024/01/28 09:00:52;;;;;;;9.20;2.23;;;24.10;73.40;;;;;;5071793;28;20203;-73
2024/01/28 09:03:19;;;;;;;7.13;2.77;;;24.20;73.80;;;;;;5067589;28;20176;-70
2024/01/28 09:05:47;;;;;;;15.87;3.43;;;24.20;74.20;;;;;;5074809;28;20203;-76
2024/01/28 09:08:15;;;;;;;12.63;2.17;;;24.20;73.60;;;;;;5075549;28;20183;-74
2024/01/28 09:10:42;;;;;;;11.90;2.47;;;24.20;73.80;;;;;;5075506;28;20194;-74
2024/01/28 09:13:09;;;;;;;14.20;2.60;;;24.10;74.40;;;;;;5082622;28;20540;-76
2024/01/28 09:15:37;;;;;;;6.37;2.37;;;24.10;74.00;;;;;;5086931;28;20179;-75
2024/01/28 09:18:04;;;;;;;6.80;2.57;;;24.10;73.80;;;;;;5073577;28;20175;-73
2024/01/28 09:20:32;;;;;;;10.07;2.50;;;24.10;74.50;;;;;;5074769;28;20184;-73
2024/01/28 09:22:59;;;;;;;8.00;2.47;;;24.10;74.40;;;;;;5074298;28;20189;-75
2024/01/28 09:25:28;;;;;;;6.30;2.20;;;24.10;74.00;;;;;;5079306;28;20249;-73
2024/01/28 09:27:55;;;;;;;9.53;2.10;;;24.10;73.80;;;;;;5074787;28;20179;-73
2024/01/28 09:30:23;;;;;;;10.87;2.40;;;24.10;73.90;;;;;;5066858;28;20183;-72
2024/01/28 09:32:50;;;;;;;11.40;2.60;;;24.10;74.10;;;;;;5066459;28;20575;-74
2024/01/28 09:35:18;;;;;;;10.53;2.23;;;24.10;74.10;;;;;;5072540;28;20226;-75
2024/01/28 09:37:46;;;;;;;10.23;2.00;;;24.10;74.50;;;;;;5071931;28;20592;-72
2024/01/28 09:40:14;;;;;;;10.13;2.40;;;24.00;74.60;;;;;;5072692;28;20645;-75
2024/01/28 09:42:59;;;;;;;10.73;2.50;;;23.90;75.20;;;;;;5082110;28;20279;-73
2024/01/28 09:45:27;;;;;;;6.90;2.13;;;23.90;75.30;;;;;;5088375;28;20293;-75
2024/01/28 09:47:56;;;;;;;8.50;1.90;;;23.90;75.40;;;;;;5076226;28;20182;-73
2024/01/28 09:50:23;;;;;;;6.33;1.77;;;23.80;75.50;;;;;;5074574;28;20186;-75
2024/01/28 09:52:51;;;;;;;5.87;2.20;;;23.80;75.30;;;;;;5073673;28;20179;-75
2024/01/28 09:55:18;;;;;;;8.77;2.03;;;23.80;75.40;;;;;;5076330;28;20183;-73
2024/01/28 09:57:47;;;;;;;9.07;2.20;;;23.80;75.50;;;;;;5081299;28;20178;-74
2024/01/28 10:00:15;;;;;;;10.57;2.23;;;23.80;75.40;;;;;;5061409;28;20184;-73
2024/01/28 10:02:43;;;;;;;8.00;2.33;;;23.70;75.80;;;;;;5081862;28;20182;-73
2024/01/28 10:05:10;;;;;;;10.43;2.57;;;23.60;76.00;;;;;;5072975;28;20215;-75
2024/01/28 10:07:48;;;;;;;6.90;2.40;;;23.60;76.30;;;;;;5073871;28;20179;-76
2024/01/28 10:10:17;;;;;;;11.20;2.47;;;23.50;76.40;;;;;;5071703;28;20186;-72
2024/01/28 10:12:49;;;;;;;12.37;2.73;;;23.50;76.40;;;;;;5072831;28;20171;-74
2024/01/28 10:15:20;;;;;;;7.97;2.93;;;23.50;76.40;;;;;;5071954;28;20652;-76
2024/01/28 10:17:49;;;;;;;9.30;2.07;;;23.50;76.80;;;;;;5072542;28;20182;-72
2024/01/28 10:20:21;;;;;;;9.47;2.20;;;23.50;76.60;;;;;;5072778;28;20550;-74
2024/01/28 10:22:49;;;;;;;11.77;2.57;;;23.50;76.60;;;;;;5072540;28;20194;-75
2024/01/28 10:25:17;;;;;;;9.70;1.80;;;23.50;76.30;;;;;;5072961;28;20305;-73
2024/01/28 10:27:46;;;;;;;10.67;1.90;;;23.50;76.60;;;;;;5072639;28;20626;-76
2024/01/28 10:30:16;;;;;;;10.07;2.13;;;23.50;76.70;;;;;;5079952;28;20248;-74
2024/01/28 10:32:44;;;;;;;10.20;2.43;;;23.40;76.80;;;;;;5066503;28;20550;-74
2024/01/28 10:35:13;;;;;;;10.10;2.03;;;23.40;76.90;;;;;;5074418;28;20767;-75
2024/01/28 10:37:44;;;;;;;10.67;2.00;;;23.40;77.00;;;;;;5072820;28;20227;-74
2024/01/28 10:40:13;;;;;;;6.37;1.87;;;23.40;76.90;;;;;;5072815;28;20179;-73
2024/01/28 10:42:42;;;;;;;11.53;2.20;;;23.30;77.30;;;;;;5072117;28;20237;-75
2024/01/28 10:45:17;;;;;;;8.30;1.87;;;23.40;77.20;;;;;;5077005;28;20207;-76
2024/01/28 10:47:55;;;;;;;9.57;2.40;;;23.40;77.20;;;;;;5076789;28;20218;-74
2024/01/28 10:50:25;;;;;;;10.07;2.97;;;23.40;77.50;;;;;;5076089;28;20244;-74
2024/01/28 10:52:53;;;;;;;9.53;2.10;;;23.40;77.50;;;;;;5076483;28;20186;-73
2024/01/28 10:55:22;;;;;;;8.20;1.80;;;23.30;77.10;;;;;;5075617;28;20324;-75
2024/01/28 10:57:50;;;;;;;9.90;2.20;;;23.30;77.60;;;;;;5079639;28;20183;-72
2024/01/28 11:00:20;;;;;;;9.53;2.97;;;23.40;77.60;;;;;;5068491;28;20187;-73
2024/01/28 11:02:49;;;;;;;6.60;1.80;;;23.40;77.60;;;;;;5073957;28;20211;-75
2024/01/28 11:05:17;;;;;;;5.77;2.00;;;23.50;77.60;;;;;;5073953;28;20306;-76
2024/01/28 11:07:44;;;;;;;6.23;1.80;;;23.50;77.40;;;;;;5074933;28;20175;-75
2024/01/28 11:10:12;;;;;;;7.17;2.00;;;23.50;77.50;;;;;;5074977;28;20689;-75
2024/01/28 11:12:39;;;;;;;8.90;1.93;;;23.50;77.60;;;;;;5075157;28;20194;-75
2024/01/28 11:15:13;;;;;;;10.50;2.20;;;23.50;77.40;;;;;;5084401;28;20254;-74
2024/01/28 11:17:40;;;;;;;8.83;2.60;;;23.60;77.60;;;;;;5067218;28;20223;-73
2024/01/28 11:20:13;;;;;;;7.00;2.23;;;23.70;77.60;;;;;;5081304;28;20171;-74
2024/01/28 11:22:55;;;;;;;8.07;2.07;;;23.70;77.40;;;;;;5068812;28;20537;-74
2024/01/28 11:25:24;;;;;;;6.23;1.70;;;23.70;77.70;;;;;;5067731;28;20214;-72
2024/01/28 11:27:53;;;;;;;9.13;1.93;;;23.70;77.40;;;;;;5074329;28;20207;-74
2024/01/28 11:30:22;;;;;;;5.97;1.87;;;23.70;77.60;;;;;;5066429;28;20258;-77
2024/01/28 11:32:52;;;;;;;8.57;2.00;;;23.70;77.30;;;;;;5074707;28;20173;-75
2024/01/28 11:35:19;;;;;;;8.93;2.07;;;23.70;77.90;;;;;;5074606;28;20318;-76
2024/01/28 11:37:58;;;;;;;7.23;1.93;;;23.70;78.00;;;;;;5085382;28;20195;-75
2024/01/28 11:40:35;;;;;;;8.20;1.77;;;23.70;78.20;;;;;;5062391;28;20266;-76
2024/01/28 11:43:08;;;;;;;10.47;2.10;;;23.60;78.40;;;;;;5074497;28;20202;-75
2024/01/28 11:45:36;;;;;;;9.17;2.10;;;23.70;78.50;;;;;;5074811;28;20272;-75
2024/01/28 11:48:09;;;;;;;6.83;2.03;;;23.70;78.50;;;;;;5074786;28;20197;-74
2024/01/28 11:50:36;;;;;;;5.70;2.10;;;23.70;78.50;;;;;;5074754;28;20183;-75
2024/01/28 11:53:06;;;;;;;6.83;2.10;;;23.70;78.60;;;;;;5075781;28;20217;-76
2024/01/28 11:55:33;;;;;;;9.97;2.53;;;23.70;78.70;;;;;;5080414;28;20183;-74
2024/01/28 11:58:01;;;;;;;8.20;2.27;;;23.70;78.60;;;;;;5080052;28;20187;-74
2024/01/28 12:00:29;;;;;;;13.53;2.50;;;23.70;78.60;;;;;;5072139;28;20187;-76
2024/01/28 12:02:56;;;;;;;9.57;1.77;;;23.70;78.90;;;;;;5068080;28;20175;-75
2024/01/28 12:05:24;;;;;;;7.43;2.13;;;23.70;78.70;;;;;;5086315;28;20309;-74
2024/01/28 12:07:54;;;;;;;7.80;2.17;;;23.70;78.60;;;;;;5077736;28;20175;-73
2024/01/28 12:10:22;;;;;;;9.60;2.40;;;23.70;78.60;;;;;;5077613;28;20310;-74
2024/01/28 12:12:50;;;;;;;8.03;2.10;;;23.70;78.70;;;;;;5078863;28;20274;-75
2024/01/28 12:15:17;;;;;;;8.67;2.47;;;23.70;78.40;;;;;;5075926;28;20179;-74
2024/01/28 12:17:47;;;;;;;9.63;2.13;;;23.60;78.60;;;;;;5079625;28;20274;-74
2024/01/28 12:20:23;;;;;;;7.13;1.90;;;23.60;78.60;;;;;;5076549;28;20171;-72
2024/01/28 12:22:51;;;;;;;8.07;2.40;;;23.60;79.00;;;;;;5076064;28;20198;-73
2024/01/28 12:25:22;;;;;;;6.87;1.83;;;23.60;78.90;;;;;;5077406;28;20260;-75
2024/01/28 12:27:53;;;;;;;5.93;2.17;;;23.60;78.90;;;;;;5075933;28;20189;-75
2024/01/28 12:30:21;;;;;;;7.53;2.47;;;23.60;78.50;;;;;;5074416;28;20174;-74
2024/01/28 12:32:50;;;;;;;9.60;2.63;;;23.60;79.00;;;;;;5078532;28;20167;-75
2024/01/28 12:35:21;;;;;;;8.27;2.13;;;23.60;79.00;;;;;;5073885;28;20218;-75
2024/01/28 12:37:48;;;;;;;9.83;2.57;;;23.60;78.80;;;;;;5077100;28;20183;-75
2024/01/28 12:40:15;;;;;;;6.50;2.30;;;23.60;79.00;;;;;;5061148;28;20167;-75
2024/01/28 12:42:42;;;;;;;9.33;2.53;;;23.60;79.10;;;;;;5082850;28;20655;-73
2024/01/28 12:45:11;;;;;;;10.90;2.50;;;23.60;79.40;;;;;;5073240;28;20211;-74
2024/01/28 12:47:40;;;;;;;7.83;2.60;;;23.60;79.50;;;;;;5073846;28;20183;-73